Time;durP1;ratioP1;P1;durP2;ratioP2;P2;SDS_P1;SDS_P2;PMS_P1;PMS_P2;Temp;Humidity;BMP_temperature;BMP_pressure;BME280_temperature;BME280_humidity;BME280_pressure;Samples;Min_cycle;Max_cycle;Signal;HPM_P1;HPM_P2
2023/08/22 00:02:11;;;;;;;2.35;1.58;;;;;;;18.54;100.00;101158.41;5955083;29;20127;-90
2023/08/22 00:05:14;;;;;;;4.35;2.05;;;;;;;18.47;100.00;101143.28;5961579;29;20137;-91
2023/08/22 00:08:17;;;;;;;5.95;1.90;;;;;;;18.39;100.00;101152.94;5959763;29;20058;-91
2023/08/22 00:11:19;;;;;;;4.38;1.80;;;;;;;18.26;100.00;101146.31;5963297;29;20114;-91
2023/08/22 00:14:21;;;;;;;7.57;1.77;;;;;;;18.21;100.00;101143.34;5952385;29;20486;-91
2023/08/22 00:17:24;;;;;;;4.05;1.65;;;;;;;18.17;100.00;101142.00;5956814;29;20054;-91
2023/08/22 00:20:27;;;;;;;2.20;1.50;;;;;;;18.10;100.00;101135.72;5957746;29;20058;-91
2023/08/22 00:23:29;;;;;;;2.50;1.70;;;;;;;18.02;100.00;101133.91;5949303;29;20051;-92
2023/08/22 00:26:31;;;;;;;2.38;1.60;;;;;;;17.98;100.00;101121.25;5963593;29;20051;-91
2023/08/22 00:29:33;;;;;;;4.05;1.80;;;;;;;17.90;100.00;101116.78;5973819;29;20073;-91
2023/08/22 00:32:36;;;;;;;8.23;1.85;;;;;;;17.86;100.00;101113.69;5945911;29;20058;-91
2023/08/22 00:35:38;;;;;;;2.75;1.50;;;;;;;17.81;100.00;101104.63;5957394;29;20047;-91
2023/08/22 00:38:40;;;;;;;4.30;1.60;;;;;;;17.76;100.00;101106.84;5949052;29;20055;-91
2023/08/22 00:41:42;;;;;;;3.33;1.77;;;;;;;17.70;100.00;101116.13;5948203;29;20046;-91
2023/08/22 00:44:44;;;;;;;2.85;1.77;;;;;;;17.65;100.00;101129.69;5948978;29;20043;-91
2023/08/22 00:47:49;;;;;;;3.42;1.90;;;;;;;17.62;100.00;101127.38;5955960;29;20089;-91
2023/08/22 00:50:51;;;;;;;3.63;1.73;;;;;;;17.60;100.00;101124.09;5955674;29;20053;-90
2023/08/22 00:53:55;;;;;;;2.88;1.77;;;;;;;17.55;100.00;101123.72;5961190;29;20161;-90
2023/08/22 00:56:58;;;;;;;5.03;2.00;;;;;;;17.51;100.00;101130.22;5951068;29;20095;-91
2023/08/22 01:00:05;;;;;;;2.75;1.63;;;;;;;17.51;100.00;101129.41;5959058;29;20050;-91
2023/08/22 01:03:08;;;;;;;3.85;1.52;;;;;;;17.49;100.00;101136.59;5955891;29;20133;-91
2023/08/22 01:06:24;;;;;;;3.28;1.77;;;;;;;17.55;100.00;101138.63;5947005;29;20039;-91
2023/08/22 01:09:43;;;;;;;5.13;1.70;;;;;;;17.55;100.00;101128.97;5960843;29;20054;-92
2023/08/22 01:12:54;;;;;;;2.47;1.60;;;;;;;17.52;100.00;101128.44;5933691;29;20146;-91
2023/08/22 01:15:57;;;;;;;4.15;1.50;;;;;;;17.49;100.00;101118.25;5945856;29;20074;-91
2023/08/22 01:19:01;;;;;;;2.88;1.60;;;;;;;17.48;100.00;101124.50;5954395;29;20050;-91
2023/08/22 01:22:04;;;;;;;5.22;1.70;;;;;;;17.44;100.00;101119.56;5954155;29;20047;-91
2023/08/22 01:25:08;;;;;;;3.67;1.48;;;;;;;17.42;100.00;101113.66;5965485;29;20083;-91
2023/08/22 01:28:11;;;;;;;2.83;1.70;;;;;;;17.40;100.00;101120.00;5957667;29;20872;-91
2023/08/22 01:31:19;;;;;;;3.42;1.60;;;;;;;17.41;100.00;101130.31;5955243;29;20065;-92
2023/08/22 01:34:30;;;;;;;6.57;2.08;;;;;;;17.44;100.00;101110.91;5950890;29;20414;-92
2023/08/22 01:37:34;;;;;;;4.30;1.70;;;;;;;17.51;100.00;101095.38;5965091;29;20195;-91
2023/08/22 01:40:37;;;;;;;5.10;2.10;;;;;;;17.57;100.00;101086.94;5965397;29;20046;-91
2023/08/22 01:43:42;;;;;;;3.13;2.00;;;;;;;17.67;100.00;101084.22;5954075;29;20054;-91
2023/08/22 01:46:44;;;;;;;4.07;2.00;;;;;;;17.74;100.00;101090.47;5956332;29;20050;-91
2023/08/22 01:49:46;;;;;;;3.47;1.80;;;;;;;17.77;100.00;101083.13;5960933;29;20155;-90
2023/08/22 01:52:51;;;;;;;3.85;1.92;;;;;;;17.89;100.00;101080.25;5956308;29;20039;-91
2023/08/22 01:55:57;;;;;;;3.67;1.83;;;;;;;17.95;100.00;101080.47;5954386;29;20070;-92
2023/08/22 01:58:59;;;;;;;3.58;1.88;;;;;;;17.98;100.00;101077.53;5966661;29;20062;-91
2023/08/22 02:02:03;;;;;;;4.20;1.90;;;;;;;18.04;100.00;101091.84;5962703;29;20054;-92
2023/08/22 02:05:05;;;;;;;4.38;1.80;;;;;;;18.08;100.00;101082.66;5930835;29;20096;-92
2023/08/22 02:08:07;;;;;;;3.83;2.13;;;;;;;18.11;100.00;101079.75;5954904;29;20454;-92
2023/08/22 02:11:11;;;;;;;3.67;1.80;;;;;;;18.13;100.00;101076.97;5950848;29;20528;-92
2023/08/22 02:14:13;;;;;;;2.38;1.60;;;;;;;18.09;100.00;101063.38;5955286;29;20051;-91
2023/08/22 02:17:16;;;;;;;1.83;1.73;;;;;;;18.08;100.00;101059.09;5964143;29;20111;-92
2023/08/22 02:20:25;;;;;;;3.75;1.60;;;;;;;18.06;100.00;101055.78;5944128;29;20059;-91
2023/08/22 02:23:27;;;;;;;4.15;2.20;;;;;;;18.11;100.00;101055.31;5946166;29;20081;-91
2023/08/22 02:26:30;;;;;;;3.60;1.90;;;;;;;18.14;100.00;101057.66;5942261;29;20058;-92
2023/08/22 02:29:32;;;;;;;4.03;1.73;;;;;;;18.14;100.00;101048.00;5963647;29;20486;-91
2023/08/22 02:32:34;;;;;;;3.15;1.65;;;;;;;18.16;100.00;101050.44;5943834;29;20051;-92
2023/08/22 02:35:39;;;;;;;2.72;2.10;;;;;;;18.15;100.00;101060.09;5953725;29;20051;-92
2023/08/22 02:38:41;;;;;;;3.35;2.00;;;;;;;18.17;100.00;101047.66;5955745;29;20077;-92
2023/08/22 02:41:43;;;;;;;2.83;2.00;;;;;;;18.19;100.00;101044.91;5938679;29;20054;-91
2023/08/22 02:44:46;;;;;;;3.70;1.80;;;;;;;18.21;100.00;101041.16;5955491;29;20067;-92
2023/08/22 02:47:48;;;;;;;4.55;1.77;;;;;;;18.20;100.00;101026.38;5954610;29;20046;-92
2023/08/22 02:50:50;;;;;;;5.97;1.90;;;;;;;18.17;100.00;101028.50;5953521;29;20103;-92
2023/08/22 02:53:53;;;;;;;3.50;1.70;;;;;;;18.15;100.00;101033.09;5937586;29;20074;-91
2023/08/22 02:56:57;;;;;;;3.60;1.80;;;;;;;18.13;100.00;101032.41;5957178;29;20479;-92
2023/08/22 02:59:59;;;;;;;2.70;1.70;;;;;;;18.10;100.00;101028.31;5956204;29;20407;-92
2023/08/22 03:03:03;;;;;;;4.35;2.03;;;;;;;18.12;100.00;101023.75;5951989;29;20043;-92
2023/08/22 03:06:06;;;;;;;3.35;1.63;;;;;;;18.15;100.00;101028.66;5954690;29;20061;-92
2023/08/22 03:09:08;;;;;;;4.22;1.65;;;;;;;18.15;100.00;101026.03;5952848;29;20046;-92
2023/08/22 03:12:10;;;;;;;4.40;1.90;;;;;;;18.14;100.00;101024.41;5951636;29;20764;-91
2023/08/22 03:15:12;;;;;;;4.45;2.28;;;;;;;18.12;100.00;101026.34;5954001;29;20423;-91
2023/08/22 03:18:16;;;;;;;4.47;2.08;;;;;;;18.12;100.00;101033.41;5952469;29;20049;-91
2023/08/22 03:21:18;;;;;;;4.30;1.83;;;;;;;18.14;100.00;101023.59;5958406;29;20059;-92
2023/08/22 03:24:20;;;;;;;4.78;1.75;;;;;;;18.16;100.00;101032.09;5948295;29;20216;-91
2023/08/22 03:27:22;;;;;;;3.92;2.20;;;;;;;18.20;100.00;101029.00;5973179;29;20046;-91
2023/08/22 03:30:25;;;;;;;3.92;1.60;;;;;;;18.23;100.00;101030.47;5942388;29;20054;-91
2023/08/22 03:33:27;;;;;;;4.25;2.03;;;;;;;18.22;100.00;101042.78;5937493;29;20188;-91
2023/08/22 03:36:31;;;;;;;5.57;1.85;;;;;;;18.24;100.00;101037.38;5954292;29;20070;-91
2023/08/22 03:39:37;;;;;;;3.40;2.00;;;;;;;18.23;100.00;101036.53;5959052;29;20047;-91
2023/08/22 03:42:40;;;;;;;5.57;2.08;;;;;;;18.23;100.00;101036.53;5957465;29;20121;-91
2023/08/22 03:45:43;;;;;;;6.53;2.15;;;;;;;18.21;100.00;101050.78;5946191;29;20489;-91
2023/08/22 03:48:46;;;;;;;4.75;2.00;;;;;;;18.20;100.00;101042.09;5960190;29;20126;-91
2023/08/22 03:51:53;;;;;;;3.30;1.90;;;;;;;18.18;100.00;101024.91;5957182;29;20063;-92
2023/08/22 03:54:56;;;;;;;4.85;1.88;;;;;;;18.17;100.00;101031.94;5965629;29;20425;-92
2023/08/22 03:57:58;;;;;;;4.13;2.13;;;;;;;18.14;100.00;101026.22;5941754;29;20077;-92
2023/08/22 04:01:07;;;;;;;2.55;1.90;;;;;;;18.12;100.00;101022.94;5948612;29;20043;-91
2023/08/22 04:04:09;;;;;;;4.70;2.20;;;;;;;18.06;100.00;101013.88;5937243;29;20454;-92
2023/08/22 04:07:11;;;;;;;5.60;2.25;;;;;;;18.02;100.00;101018.63;5951286;29;20047;-92
2023/08/22 04:10:13;;;;;;;5.72;2.50;;;;;;;17.97;100.00;101013.03;5948360;29;20059;-92
2023/08/22 04:13:15;;;;;;;4.55;2.15;;;;;;;17.93;100.00;101030.03;5945888;29;20046;-92
2023/08/22 04:16:18;;;;;;;4.53;2.10;;;;;;;17.93;100.00;101032.66;5956562;29;20619;-92
2023/08/22 04:19:20;;;;;;;3.33;2.15;;;;;;;17.96;100.00;101028.91;5940644;29;20051;-92
2023/08/22 04:22:22;;;;;;;2.63;2.00;;;;;;;17.99;100.00;101032.03;5948088;29;20047;-92
2023/08/22 04:25:25;;;;;;;4.35;2.33;;;;;;;18.04;100.00;101028.97;5946721;29;20050;-91
2023/08/22 04:28:32;;;;;;;5.07;1.85;;;;;;;18.07;100.00;101020.78;5938885;29;20064;-91
2023/08/22 04:31:35;;;;;;;2.88;2.05;;;;;;;18.13;100.00;101016.69;5946611;29;20051;-91
2023/08/22 04:34:38;;;;;;;3.90;2.15;;;;;;;18.16;100.00;101016.38;5956974;29;20066;-91
2023/08/22 04:37:42;;;;;;;6.40;1.83;;;;;;;18.20;100.00;101015.91;5954644;29;20043;-91
2023/08/22 04:40:45;;;;;;;5.32;2.22;;;;;;;18.25;100.00;101020.66;5958568;29;20058;-92
2023/08/22 04:44:01;;;;;;;3.15;1.88;;;;;;;18.25;100.00;101029.34;5956153;29;20548;-92
2023/08/22 04:47:03;;;;;;;3.70;2.10;;;;;;;18.26;100.00;101024.91;5956172;29;20635;-91
2023/08/22 04:50:06;;;;;;;3.97;2.10;;;;;;;18.28;100.00;101028.19;5956984;29;20055;-91
2023/08/22 04:53:09;;;;;;;3.15;2.05;;;;;;;18.30;100.00;101015.75;5965232;29;20067;-92
2023/08/22 04:56:11;;;;;;;6.78;2.10;;;;;;;18.35;100.00;101017.91;5941040;29;20134;-91
2023/08/22 04:59:14;;;;;;;5.53;2.17;;;;;;;18.35;100.00;101010.88;5971665;29;20055;-91
2023/08/22 05:02:17;;;;;;;4.53;1.90;;;;;;;18.41;100.00;101012.88;5958203;29;20047;-91
2023/08/22 05:05:19;;;;;;;4.95;1.90;;;;;;;18.44;100.00;101006.47;5980253;29;20616;-91
2023/08/22 05:08:22;;;;;;;5.60;2.22;;;;;;;18.46;100.00;101010.56;5971653;29;20192;-91
2023/08/22 05:11:24;;;;;;;3.15;2.10;;;;;;;18.48;100.00;101011.25;5959481;29;20469;-91
2023/08/22 05:14:28;;;;;;;4.28;2.20;;;;;;;18.50;100.00;101004.00;5955361;29;20051;-91
2023/08/22 05:17:31;;;;;;;3.28;2.10;;;;;;;18.58;100.00;101010.25;5950904;29;20055;-91
2023/08/22 05:20:33;;;;;;;4.22;1.83;;;;;;;18.62;100.00;101016.81;5931911;29;20047;-91
2023/08/22 05:23:35;;;;;;;3.40;1.90;;;;;;;18.65;100.00;101014.69;5936970;29;20553;-91
2023/08/22 05:26:37;;;;;;;5.85;2.38;;;;;;;18.72;100.00;101017.50;5945672;29;20054;-91
2023/08/22 05:29:40;;;;;;;6.78;2.10;;;;;;;18.76;100.00;101013.59;5968758;29;20046;-92
2023/08/22 05:32:42;;;;;;;4.07;2.30;;;;;;;18.80;100.00;101027.19;5953484;29;20425;-91
2023/08/22 05:35:45;;;;;;;2.50;1.90;;;;;;;18.84;100.00;101028.53;5960790;29;20154;-91
2023/08/22 05:38:47;;;;;;;3.75;1.92;;;;;;;18.88;100.00;101028.03;5958989;29;20046;-92
2023/08/22 05:41:49;;;;;;;4.13;2.05;;;;;;;18.96;100.00;101032.47;5950213;29;20062;-92
2023/08/22 05:44:53;;;;;;;2.97;1.92;;;;;;;19.05;100.00;101030.66;5954330;29;20054;-91
2023/08/22 05:47:59;;;;;;;5.20;2.53;;;;;;;19.13;100.00;101031.47;5957473;29;20061;-92
2023/08/22 05:51:02;;;;;;;5.13;2.75;;;;;;;19.20;100.00;101036.88;5949650;29;20046;-92
2023/08/22 05:54:07;;;;;;;6.00;2.47;;;;;;;19.29;100.00;101028.00;5950451;29;20051;-92
2023/08/22 05:57:09;;;;;;;5.00;2.28;;;;;;;19.34;100.00;101025.72;5959800;29;20058;-92
2023/08/22 06:00:12;;;;;;;6.78;3.35;;;;;;;19.41;100.00;101030.31;5949075;29;20050;-92
2023/08/22 06:03:31;;;;;;;5.88;2.30;;;;;;;19.47;100.00;101022.56;5951420;29;20047;-92
2023/08/22 06:06:33;;;;;;;5.95;2.80;;;;;;;19.52;100.00;101027.31;5967810;29;20123;-92
2023/08/22 06:09:35;;;;;;;4.43;2.08;;;;;;;19.53;100.00;101029.78;5948019;29;20050;-92
2023/08/22 06:12:37;;;;;;;4.68;2.17;;;;;;;19.56;100.00;101026.00;5951579;29;20095;-92
2023/08/22 06:15:40;;;;;;;8.73;2.60;;;;;;;19.58;100.00;101032.72;5954380;29;20363;-92
2023/08/22 06:18:44;;;;;;;7.30;2.65;;;;;;;19.62;100.00;101033.19;5953030;29;20118;-92
2023/08/22 06:21:47;;;;;;;3.40;1.90;;;;;;;19.72;100.00;101023.34;5955025;29;20089;-92
2023/08/22 06:24:49;;;;;;;5.75;2.38;;;;;;;19.86;100.00;101029.72;5954464;29;20506;-92
2023/08/22 06:27:51;;;;;;;2.70;2.10;;;;;;;19.96;100.00;101025.09;5950917;29;20071;-91
2023/08/22 06:31:02;;;;;;;4.90;2.30;;;;;;;20.05;100.00;101022.41;5969769;29;20055;-92
2023/08/22 06:34:05;;;;;;;9.25;2.20;;;;;;;20.11;100.00;101014.66;5984885;29;20055;-92
2023/08/22 06:37:07;;;;;;;7.88;2.58;;;;;;;20.19;100.00;101008.56;5964916;29;20897;-92
2023/08/22 06:40:09;;;;;;;6.65;2.50;;;;;;;20.22;100.00;101006.41;5973899;29;20163;-92
2023/08/22 06:43:14;;;;;;;13.23;2.95;;;;;;;20.24;100.00;101011.47;5960034;29;20776;-91
2023/08/22 06:46:21;;;;;;;5.32;2.60;;;;;;;20.26;100.00;101019.22;5946650;29;20059;-91
2023/08/22 06:49:24;;;;;;;5.95;2.80;;;;;;;20.40;100.00;101016.66;5949222;29;20038;-91
2023/08/22 06:52:26;;;;;;;4.35;2.70;;;;;;;20.63;100.00;101014.06;5973821;29;20055;-91
2023/08/22 06:55:28;;;;;;;6.60;3.45;;;;;;;20.80;100.00;101009.50;5958926;29;20062;-91
2023/08/22 06:58:30;;;;;;;9.45;3.03;;;;;;;20.96;100.00;101020.91;5948142;29;20156;-91
2023/08/22 07:01:32;;;;;;;8.77;2.78;;;;;;;21.01;100.00;101018.53;5942073;29;20483;-92
2023/08/22 07:04:34;;;;;;;5.50;2.53;;;;;;;20.99;100.00;101017.91;5938236;29;20047;-91
2023/08/22 07:07:38;;;;;;;7.80;2.78;;;;;;;21.06;100.00;101021.47;5942822;29;20051;-92
2023/08/22 07:10:41;;;;;;;6.28;2.88;;;;;;;21.17;100.00;101020.25;5949496;29;20046;-91
2023/08/22 07:13:43;;;;;;;5.65;3.10;;;;;;;21.33;100.00;101016.63;5963598;29;20500;-91
2023/08/22 07:16:45;;;;;;;3.53;2.50;;;;;;;21.46;100.00;101022.91;5959445;29;20050;-91
2023/08/22 07:19:48;;;;;;;5.53;2.60;;;;;;;21.62;100.00;101014.03;5959386;29;20047;-92
2023/08/22 07:22:50;;;;;;;5.10;2.70;;;;;;;21.77;100.00;101018.50;5951776;29;20055;-91
2023/08/22 07:25:52;;;;;;;5.45;2.58;;;;;;;21.88;100.00;101007.47;5936955;29;20139;-92
2023/08/22 07:28:54;;;;;;;3.78;2.47;;;;;;;21.93;100.00;101013.00;5955117;29;20122;-94
2023/08/22 07:31:58;;;;;;;5.22;2.42;;;;;;;22.03;100.00;101010.91;5955371;29;20077;-91
2023/08/22 07:35:00;;;;;;;4.60;2.50;;;;;;;22.12;100.00;101012.44;5965712;29;20179;-91
2023/08/22 07:38:02;;;;;;;4.00;2.67;;;;;;;22.19;100.00;101012.53;5952181;29;20054;-90
2023/08/22 07:41:04;;;;;;;6.60;3.28;;;;;;;22.27;100.00;101011.63;5945411;29;20574;-89
2023/08/22 07:44:06;;;;;;;6.93;2.53;;;;;;;22.36;100.00;101013.16;5960076;29;20050;-89
2023/08/22 07:47:08;;;;;;;4.20;2.72;;;;;;;22.44;100.00;101018.31;5953544;29;20311;-90
2023/08/22 07:50:10;;;;;;;5.65;2.38;;;;;;;22.57;100.00;101013.16;5954486;29;20055;-90
2023/08/22 07:53:14;;;;;;;5.93;2.03;;;;;;;22.83;100.00;101017.06;5945124;29;20105;-91
2023/08/22 07:56:16;;;;;;;5.13;2.58;;;;;;;23.05;100.00;101012.56;5942700;29;20051;-91
2023/08/22 07:59:18;;;;;;;8.10;2.58;;;;;;;23.14;100.00;101015.91;5965380;29;20043;-91
2023/08/22 08:02:20;;;;;;;4.80;2.28;;;;;;;23.25;100.00;101019.81;5951640;29;20494;-91
2023/08/22 08:05:22;;;;;;;4.53;2.40;;;;;;;23.33;100.00;101025.81;5950810;29;20541;-91
2023/08/22 08:08:25;;;;;;;3.25;2.20;;;;;;;23.44;100.00;101021.78;5954479;29;20043;-92
2023/08/22 08:11:33;;;;;;;6.93;2.30;;;;;;;23.45;100.00;101015.50;5960239;29;20038;-91
2023/08/22 08:14:35;;;;;;;5.97;2.10;;;;;;;23.46;100.00;101016.31;5959597;29;20081;-91
2023/08/22 08:17:37;;;;;;;5.15;2.50;;;;;;;23.40;100.00;101015.25;5940842;29;20498;-92
2023/08/22 08:20:40;;;;;;;5.28;2.17;;;;;;;23.53;100.00;101010.06;5964528;29;20039;-90
2023/08/22 08:23:44;;;;;;;4.88;2.05;;;;;;;23.74;100.00;101008.38;5950405;29;20118;-90
2023/08/22 08:26:46;;;;;;;3.97;1.70;;;;;;;23.97;100.00;101008.06;5959085;29;20043;-91
2023/08/22 08:29:49;;;;;;;4.65;1.83;;;;;;;24.22;100.00;101010.97;5956861;29;20051;-90
2023/08/22 08:32:51;;;;;;;4.53;1.63;;;;;;;24.40;100.00;101019.19;5944290;29;20051;-91
2023/08/22 08:35:54;;;;;;;12.27;2.05;;;;;;;24.50;100.00;101024.13;5959592;29;20059;-91
2023/08/22 08:38:56;;;;;;;3.47;1.80;;;;;;;24.59;100.00;101027.38;5962370;29;20384;-89
2023/08/22 08:42:12;;;;;;;10.50;1.60;;;;;;;24.70;100.00;101030.25;5962150;29;20516;-90
2023/08/22 08:45:15;;;;;;;3.78;1.88;;;;;;;24.85;100.00;101026.59;5952526;29;20047;-90
2023/08/22 08:48:19;;;;;;;4.43;1.60;;;;;;;24.96;100.00;101025.97;5950641;29;20123;-90
2023/08/22 08:51:23;;;;;;;3.42;1.90;;;;;;;25.11;100.00;101029.22;5956895;29;20130;-89
2023/08/22 08:54:25;;;;;;;9.02;1.95;;;;;;;25.24;100.00;101028.47;5969223;29;20051;-86
2023/08/22 08:57:27;;;;;;;165.73;15.20;;;;;;;25.27;100.00;101019.28;5954750;29;20062;-89
2023/08/22 09:00:31;;;;;;;5.03;2.30;;;;;;;25.28;100.00;101042.09;5956978;29;20050;-88
2023/08/22 09:03:33;;;;;;;4.05;1.83;;;;;;;25.29;100.00;101030.47;5951685;29;20532;-88
2023/08/22 09:06:37;;;;;;;6.47;2.20;;;;;;;25.20;100.00;101043.13;5954296;29;20051;-88
2023/08/22 09:09:39;;;;;;;3.47;1.60;;;;;;;25.27;100.00;101033.34;5952291;29;20492;-89
2023/08/22 09:12:41;;;;;;;26.42;5.47;;;;;;;25.26;100.00;101022.94;5957678;29;20108;-88
2023/08/22 09:15:43;;;;;;;3.63;2.17;;;;;;;25.31;100.00;101028.44;5955033;29;20051;-88
2023/08/22 09:18:44;;;;;;;4.18;2.30;;;;;;;25.39;100.00;101030.88;5958251;29;20042;-88
2023/08/22 09:21:57;;;;;;;11.98;2.85;;;;;;;25.46;100.00;101034.31;5963040;29;20067;-88
2023/08/22 09:24:59;;;;;;;10.05;2.55;;;;;;;25.37;100.00;101024.97;5957715;29;20046;-88
2023/08/22 09:28:02;;;;;;;8.68;2.30;;;;;;;25.33;100.00;101029.06;5957626;29;20083;-88
2023/08/22 09:31:04;;;;;;;11.15;3.22;;;;;;;25.33;100.00;101029.84;5957991;29;20307;-89
2023/08/22 09:34:14;;;;;;;3.85;1.80;;;;;;;25.40;100.00;101037.00;5965618;29;20043;-89
2023/08/22 09:37:28;;;;;;;8.23;1.90;;;;;;;25.33;100.00;101034.34;5948563;29;20062;-89
2023/08/22 09:40:30;;;;;;;5.00;1.67;;;;;;;25.26;100.00;101038.84;5949467;29;20039;-88
2023/08/22 09:43:33;;;;;;;34.67;4.30;;;;;;;25.30;100.00;101032.94;5952523;29;20035;-88
2023/08/22 09:46:38;;;;;;;4.43;1.95;;;;;;;25.38;100.00;101042.50;5953982;29;20115;-89
2023/08/22 09:49:40;;;;;;;12.88;2.55;;;;;;;25.43;100.00;101033.94;5944266;29;20039;-87
2023/08/22 09:52:42;;;;;;;11.18;2.60;;;;;;;25.40;100.00;101037.81;5950959;29;20042;-89
2023/08/22 09:55:45;;;;;;;7.57;1.90;;;;;;;25.27;100.00;101041.28;5949972;29;20048;-87
2023/08/22 09:58:47;;;;;;;99.35;9.07;;;;;;;25.30;100.00;101032.13;5962933;29;20043;-88
2023/08/22 10:01:49;;;;;;;4.53;2.00;;;;;;;25.43;100.00;101036.56;5958043;29;20054;-88
2023/08/22 10:04:51;;;;;;;141.25;13.85;;;;;;;25.46;100.00;101041.47;5958028;29;20099;-88
2023/08/22 10:07:54;;;;;;;137.75;11.20;;;;;;;25.53;100.00;101042.25;5958784;29;20051;-89
2023/08/22 10:10:58;;;;;;;46.28;6.13;;;;;;;25.52;100.00;101038.81;5964242;29;20054;-89
2023/08/22 10:14:03;;;;;;;4.22;2.40;;;;;;;25.48;100.00;101050.03;5949627;29;20052;-89
2023/08/22 10:17:15;;;;;;;58.35;6.68;;;;;;;25.31;100.00;101042.50;5959962;29;20120;-89
2023/08/22 10:20:17;;;;;;;81.28;8.80;;;;;;;25.35;100.00;101037.63;5963019;29;20055;-89
2023/08/22 10:23:49;;;;;;;8.32;2.28;;;;;;;25.23;100.00;101052.50;5964499;29;20061;-90
2023/08/22 10:27:13;;;;;;;46.00;5.22;;;;;;;25.12;100.00;101048.63;5955091;29;20418;-91
2023/08/22 10:30:20;;;;;;;7.28;2.28;;;;;;;24.91;100.00;101046.97;5942283;29;20112;-91
2023/08/22 10:33:28;;;;;;;34.58;4.93;;;;;;;24.77;100.00;101043.50;5959240;29;20690;-90
2023/08/22 10:36:56;;;;;;;15.23;2.40;;;;;;;24.91;100.00;101052.25;5929508;29;20073;-90
2023/08/22 10:40:02;;;;;;;43.15;4.88;;;;;;;25.10;100.00;101048.00;5952310;29;20524;-89
2023/08/22 10:43:12;;;;;;;32.20;4.10;;;;;;;25.40;100.00;101043.09;5958906;29;20063;-90
2023/08/22 10:46:14;;;;;;;6.80;1.90;;;;;;;25.81;100.00;101036.66;5959118;29;20050;-89
2023/08/22 10:49:22;;;;;;;5.43;1.70;;;;;;;25.96;100.00;101041.75;5957767;29;20051;-90
2023/08/22 10:52:28;;;;;;;3.17;1.58;;;;;;;25.75;100.00;101034.88;5928770;29;20085;-91
2023/08/22 10:55:31;;;;;;;10.20;2.20;;;;;;;25.80;100.00;101037.69;5940756;29;20129;-90
2023/08/22 10:58:41;;;;;;;2.97;1.85;;;;;;;25.86;100.00;101028.13;5943133;29;20067;-89
2023/08/22 11:01:43;;;;;;;2.90;1.65;;;;;;;25.70;100.00;101032.84;5940526;29;20108;-91
2023/08/22 11:04:47;;;;;;;3.60;1.98;;;;;;;25.78;100.00;101023.84;5970042;29;20420;-90
2023/08/22 11:07:50;;;;;;;3.47;1.58;;;;;;;25.78;100.00;101029.13;5967827;29;20088;-92
2023/08/22 11:10:52;;;;;;;6.97;1.83;;;;;;;25.66;100.00;101026.31;5957432;29;21378;-91
2023/08/22 11:13:58;;;;;;;6.93;2.78;;;;;;;25.53;100.00;101032.47;5969832;29;20425;-91
2023/08/22 11:17:02;;;;;;;3.28;2.17;;;;;;;25.50;100.00;101029.44;5962477;29;20047;-90
2023/08/22 11:20:05;;;;;;;4.32;2.40;;;;;;;25.74;100.00;101023.44;5960248;29;20135;-90
2023/08/22 11:23:07;;;;;;;6.18;2.80;;;;;;;25.94;100.00;101025.25;5958160;29;20039;-91
2023/08/22 11:26:09;;;;;;;3.33;2.13;;;;;;;25.98;100.00;101029.91;5945205;29;20042;-91
2023/08/22 11:29:12;;;;;;;4.53;2.17;;;;;;;26.10;100.00;101038.00;5955968;29;20178;-91
2023/08/22 11:32:28;;;;;;;4.15;2.67;;;;;;;26.24;100.00;101032.66;5953577;29;20051;-91
2023/08/22 11:35:31;;;;;;;4.53;2.60;;;;;;;26.30;100.00;101019.34;5956865;29;20051;-92
2023/08/22 11:38:34;;;;;;;4.43;1.92;;;;;;;26.47;100.00;101029.47;5963161;29;20043;-90
2023/08/22 11:41:37;;;;;;;2.85;1.90;;;;;;;26.53;100.00;101031.28;5954954;29;20426;-91
2023/08/22 11:45:03;;;;;;;3.17;1.42;;;;;;;26.34;100.00;101022.41;5956759;29;20054;-90
2023/08/22 11:48:10;;;;;;;2.92;1.30;;;;;;;26.32;100.00;101019.13;5947336;29;20131;-91
2023/08/22 11:51:24;;;;;;;2.78;1.58;;;;;;;26.21;100.00;101010.00;5963021;29;20051;-91
2023/08/22 11:54:27;;;;;;;3.00;1.55;;;;;;;25.94;100.00;101015.44;5964676;29;20061;-90
2023/08/22 11:57:29;;;;;;;2.50;1.35;;;;;;;25.70;100.00;101022.22;5938685;29;20051;-90
2023/08/22 12:00:32;;;;;;;1.77;1.67;;;;;;;25.67;100.00;101011.25;5952658;29;20288;-90
2023/08/22 12:03:44;;;;;;;3.65;1.40;;;;;;;25.63;100.00;101032.03;5950042;29;20067;-90
2023/08/22 12:07:04;;;;;;;3.70;1.27;;;;;;;25.57;100.00;101023.09;5969465;29;20516;-90
2023/08/22 12:10:07;;;;;;;4.00;1.35;;;;;;;25.64;100.00;101033.69;5960207;29;20099;-90
2023/08/22 12:13:10;;;;;;;1.20;1.10;;;;;;;25.86;100.00;101025.47;5959041;29;20080;-90
2023/08/22 12:16:12;;;;;;;2.00;1.20;;;;;;;26.04;100.00;101032.72;5947240;29;20054;-90
2023/08/22 12:19:14;;;;;;;1.63;1.13;;;;;;;26.25;100.00;101032.44;5958920;29;20542;-91
2023/08/22 12:22:15;;;;;;;1.38;1.25;;;;;;;26.20;100.00;101041.03;5946201;29;20651;-90
2023/08/22 12:25:17;;;;;;;3.00;1.42;;;;;;;26.07;100.00;101034.97;5957800;29;20051;-90
2023/08/22 12:28:19;;;;;;;2.80;1.20;;;;;;;25.60;100.00;101026.34;5960427;29;20073;-90
2023/08/22 12:31:21;;;;;;;3.90;1.20;;;;;;;25.41;100.00;101038.63;5958256;29;20047;-90
2023/08/22 12:34:23;;;;;;;4.22;1.50;;;;;;;25.62;100.00;101029.63;5958026;29;20043;-90
2023/08/22 12:37:25;;;;;;;4.25;1.38;;;;;;;26.06;100.00;101038.66;5948108;29;20050;-90
2023/08/22 12:40:27;;;;;;;3.88;1.38;;;;;;;26.33;100.00;101024.22;5958219;29;20082;-89
2023/08/22 12:43:29;;;;;;;2.92;1.10;;;;;;;26.90;100.00;101031.41;5961064;29;20042;-90
2023/08/22 12:46:31;;;;;;;1.80;1.10;;;;;;;27.48;100.00;101039.91;5950674;29;20483;-91
2023/08/22 12:49:33;;;;;;;6.20;1.30;;;;;;;27.72;96.35;101037.38;5958951;29;20050;-89
2023/08/22 12:52:37;;;;;;;2.65;1.13;;;;;;;28.05;92.71;101033.53;5973229;29;20084;-91
2023/08/22 12:55:40;;;;;;;2.25;1.00;;;;;;;28.42;92.42;101026.28;5964519;29;20076;-90
2023/08/22 12:58:44;;;;;;;2.22;1.00;;;;;;;28.89;84.70;101022.91;5965199;29;20050;-89
2023/08/22 13:01:46;;;;;;;3.15;1.17;;;;;;;29.21;83.25;101010.06;5959397;29;20070;-90
2023/08/22 13:04:48;;;;;;;2.75;1.10;;;;;;;29.46;80.79;101001.78;5959316;29;20050;-89
2023/08/22 13:07:49;;;;;;;1.98;0.93;;;;;;;29.79;79.28;101014.53;5959307;29;20038;-90
2023/08/22 13:10:52;;;;;;;2.55;1.10;;;;;;;29.68;74.45;101009.22;5954025;29;20142;-90
2023/08/22 13:13:54;;;;;;;1.70;1.02;;;;;;;30.05;73.36;101007.78;5956114;29;20051;-90
2023/08/22 13:16:56;;;;;;;1.73;1.20;;;;;;;30.11;79.31;101010.53;5954963;29;20055;-90
2023/08/22 13:19:59;;;;;;;2.05;1.20;;;;;;;29.85;75.06;101004.75;5958898;29;20135;-90
2023/08/22 13:23:01;;;;;;;3.20;1.23;;;;;;;29.76;72.21;100998.16;5947045;29;20518;-90
2023/08/22 13:26:02;;;;;;;3.47;1.15;;;;;;;29.87;72.98;100994.66;5958509;29;20059;-89
2023/08/22 13:29:04;;;;;;;5.53;1.42;;;;;;;29.65;75.31;100991.78;5959751;29;20052;-90
2023/08/22 13:32:08;;;;;;;4.22;1.33;;;;;;;29.41;80.13;100991.81;5957500;29;20691;-90
2023/08/22 13:35:14;;;;;;;3.55;1.70;;;;;;;29.04;78.37;100998.44;5955117;29;20046;-91
2023/08/22 13:38:16;;;;;;;3.03;1.33;;;;;;;28.84;82.40;101018.25;5953309;29;20059;-90
2023/08/22 13:41:18;;;;;;;2.67;1.15;;;;;;;28.76;79.51;101021.28;5950426;29;20058;-90
2023/08/22 13:44:19;;;;;;;1.52;0.90;;;;;;;28.99;80.17;101025.81;5948712;29;20061;-91
2023/08/22 13:47:21;;;;;;;3.67;1.05;;;;;;;28.86;76.45;101016.19;5965640;29;20054;-90
2023/08/22 13:50:23;;;;;;;3.30;1.60;;;;;;;28.59;81.27;101015.00;5945489;29;20067;-90
2023/08/22 13:53:29;;;;;;;2.80;1.00;;;;;;;28.42;74.52;100996.16;5953056;29;20050;-89
2023/08/22 13:56:31;;;;;;;5.50;1.30;;;;;;;28.25;82.69;101002.16;5954670;29;20626;-90
2023/08/22 13:59:34;;;;;;;2.00;1.45;;;;;;;28.71;83.81;101011.28;5963489;29;20054;-90
2023/08/22 14:02:36;;;;;;;3.60;1.35;;;;;;;28.56;81.61;101013.59;5956328;29;20153;-90
2023/08/22 14:05:39;;;;;;;2.92;1.45;;;;;;;28.26;82.88;101005.63;5955168;29;20107;-90